createdAt,value
2023-05-10T00:01:59.856Z,23.3
2023-05-10T00:07:18.177Z,23.3
2023-05-10T00:12:36.797Z,23.3
2023-05-10T00:17:55.226Z,23.3
2023-05-10T00:23:13.601Z,23.3
2023-05-10T00:28:31.718Z,23.3
2023-05-10T00:33:49.883Z,23.3
2023-05-10T00:39:08.063Z,23.4
2023-05-10T00:44:26.393Z,23.4
2023-05-10T00:49:44.768Z,23.4
2023-05-10T00:55:03.170Z,23.4
2023-05-10T01:00:21.313Z,23.4
2023-05-10T01:05:39.495Z,23.4
2023-05-10T01:10:58.060Z,23.4
2023-05-10T01:16:16.195Z,23.4
2023-05-10T01:21:34.614Z,23.4
2023-05-10T01:26:53.168Z,23.4
2023-05-10T01:32:11.292Z,23.4
2023-05-10T01:37:29.442Z,23.4
2023-05-10T01:42:47.705Z,23.4
2023-05-10T01:48:05.970Z,23.4
2023-05-10T01:53:24.102Z,23.4
2023-05-10T01:58:42.661Z,23.4
2023-05-10T02:04:01.500Z,23.4
2023-05-10T02:09:20.268Z,23.4
2023-05-10T02:14:38.455Z,23.4
2023-05-10T02:19:56.823Z,23.4
2023-05-10T02:25:15.224Z,23.5
2023-05-10T02:30:33.572Z,23.4
2023-05-10T02:35:51.951Z,23.4
2023-05-10T02:41:10.325Z,23.4
2023-05-10T02:46:28.420Z,23.4
2023-05-10T02:51:46.967Z,23.4
2023-05-10T02:57:05.550Z,23.4
2023-05-10T03:02:23.894Z,23.4
2023-05-10T03:07:42.023Z,23.4
2023-05-10T03:13:00.589Z,23.4
2023-05-10T03:18:19.136Z,23.4
2023-05-10T03:23:37.655Z,23.4
2023-05-10T03:28:56.235Z,23.4
2023-05-10T03:34:14.590Z,23.4
2023-05-10T03:39:33.089Z,23.4
2023-05-10T03:44:51.272Z,23.5
2023-05-10T03:50:09.913Z,23.4
2023-05-10T03:55:28.097Z,23.5
2023-05-10T04:00:46.708Z,23.5
2023-05-10T04:06:04.898Z,23.5
2023-05-10T04:11:23.520Z,23.5
2023-05-10T04:16:42.143Z,23.5
2023-05-10T04:22:00.587Z,23.5
2023-05-10T04:27:18.788Z,23.5
2023-05-10T04:32:37.296Z,23.5
2023-05-10T04:37:55.592Z,23.5
2023-05-10T04:43:13.541Z,23.5
2023-05-10T04:48:31.851Z,23.6
2023-05-10T04:54:06.359Z,23.6
2023-05-10T04:59:25.136Z,23.6
2023-05-10T05:04:43.367Z,23.6
2023-05-10T05:10:01.721Z,23.6
2023-05-10T05:15:20.196Z,23.6
2023-05-10T05:20:38.618Z,23.5
2023-05-10T05:25:57.153Z,23.5
2023-05-10T05:31:15.218Z,23.5
2023-05-10T05:36:33.560Z,23.5
2023-05-10T05:41:54.037Z,23.6
2023-05-10T05:47:13.256Z,23.6
2023-05-10T05:52:31.865Z,23.6
2023-05-10T05:57:50.246Z,23.6
2023-05-10T06:02:53.038Z,23.5
2023-05-10T06:08:11.701Z,23.5
2023-05-10T06:13:30.179Z,23.5
2023-05-10T06:18:48.340Z,23.5
2023-05-10T06:24:06.948Z,23.5
2023-05-10T06:29:25.355Z,23.5
2023-05-10T06:34:43.678Z,23.5
2023-05-10T06:40:01.860Z,23.4
2023-05-10T06:45:20.900Z,23.4
2023-05-10T06:50:39.618Z,23.4
2023-05-10T06:55:59.167Z,23.4
2023-05-10T07:01:18.038Z,23.4
2023-05-10T07:06:36.786Z,23.4
2023-05-10T07:11:55.490Z,23.4
2023-05-10T07:17:14.057Z,23.4
2023-05-10T07:22:32.450Z,23.3
2023-05-10T07:27:50.734Z,23.3
2023-05-10T07:33:09.232Z,23.3
2023-05-10T07:38:27.588Z,23.3
2023-05-10T07:43:45.597Z,23.3
2023-05-10T07:49:03.650Z,23.3
2023-05-10T07:54:22.036Z,23.3
2023-05-10T07:59:40.253Z,23.3
2023-05-10T08:04:58.621Z,23.3
2023-05-10T08:10:16.589Z,23.1
2023-05-10T08:15:35.224Z,23.2
2023-05-10T08:20:53.427Z,23.2
2023-05-10T08:25:55.986Z,23.2
2023-05-10T08:31:14.753Z,23.2
2023-05-10T08:36:33.096Z,23.2
2023-05-10T08:41:51.178Z,23.2
2023-05-10T08:47:10.171Z,23.2
2023-05-10T08:52:28.660Z,23.2
2023-05-10T08:57:46.984Z,23.2
2023-05-10T09:03:05.477Z,23.2
2023-05-10T09:08:23.675Z,23.2
2023-05-10T09:13:42.465Z,23.2
2023-05-10T09:19:01.060Z,23.2
2023-05-10T09:24:19.457Z,23.2
2023-05-10T09:29:37.927Z,23.2
2023-05-10T09:34:56.576Z,23.2
2023-05-10T09:40:14.747Z,23.2
2023-05-10T09:45:44.536Z,23.2
2023-05-10T09:51:03.089Z,23.2
2023-05-10T09:56:21.429Z,23.2
2023-05-10T10:01:39.388Z,23.2
2023-05-10T10:07:01.244Z,23.2
2023-05-10T10:12:19.799Z,23.2
2023-05-10T10:17:38.355Z,23.2
2023-05-10T10:22:56.458Z,23.1
2023-05-10T10:28:14.849Z,23.2
2023-05-10T10:33:33.261Z,23.1
2023-05-10T10:38:52.051Z,23.2
2023-05-10T10:44:10.449Z,23.2
2023-05-10T10:49:28.609Z,23.2
2023-05-10T10:54:47.037Z,23.2
2023-05-10T11:00:05.405Z,23.2
2023-05-10T11:05:23.333Z,23.2
2023-05-10T11:10:41.499Z,23.2
2023-05-10T11:15:59.965Z,23.2
2023-05-10T11:21:18.098Z,23.2
2023-05-10T11:26:36.590Z,23.2
2023-05-10T11:31:54.942Z,23.1
2023-05-10T11:37:13.053Z,23.2
2023-05-10T11:42:31.415Z,23.1
2023-05-10T11:47:49.895Z,23.1
2023-05-10T11:53:08.246Z,23.1
2023-05-10T11:58:26.458Z,23.1
2023-05-10T12:03:44.884Z,23.1
2023-05-10T12:09:03.361Z,23.1
2023-05-10T12:14:22.127Z,23.1
2023-05-10T12:19:40.250Z,23.1
2023-05-10T12:24:58.668Z,23.1
2023-05-10T12:30:17.299Z,23.2
2023-05-10T12:35:36.187Z,23.2
2023-05-10T12:40:54.453Z,23.2
2023-05-10T12:46:12.902Z,23.2
2023-05-10T12:51:31.261Z,23.2
2023-05-10T12:56:49.763Z,23.2
2023-05-10T13:02:07.901Z,23.2
2023-05-10T13:07:26.433Z,23.2
2023-05-10T13:12:44.519Z,23.2
2023-05-10T13:18:03.059Z,23.2
2023-05-10T13:23:21.796Z,23.2
2023-05-10T13:28:40.309Z,23.2
2023-05-10T13:33:58.680Z,23.2
2023-05-10T13:39:16.649Z,23.2
2023-05-10T13:44:35.158Z,23.2
2023-05-10T13:49:53.286Z,23.2
2023-05-10T13:55:11.513Z,23.1
2023-05-10T14:00:30.177Z,23.1
2023-05-10T14:05:48.316Z,23.1
2023-05-10T14:11:06.852Z,23.1
2023-05-10T14:16:25.094Z,23.1
2023-05-10T14:21:43.572Z,23.1
2023-05-10T14:27:02.600Z,23.1
2023-05-10T14:32:20.934Z,23.1
2023-05-10T14:37:39.085Z,23.1
2023-05-10T14:42:57.576Z,23.1
2023-05-10T14:48:16.071Z,23.1
2023-05-10T14:53:34.373Z,23.1
2023-05-10T14:58:52.912Z,23.2
2023-05-10T15:04:11.715Z,23.2
2023-05-10T15:09:29.906Z,23.1
2023-05-10T15:14:48.243Z,23.1
2023-05-10T15:20:06.377Z,23.1
2023-05-10T15:25:24.823Z,23.1
2023-05-10T15:30:43.204Z,23.1
2023-05-10T15:36:01.334Z,23.1
2023-05-10T15:41:19.869Z,23.1
2023-05-10T15:46:38.054Z,23.1
2023-05-10T15:51:56.519Z,23.1
2023-05-10T15:57:15.137Z,23.1
2023-05-10T16:02:18.160Z,23.1
2023-05-10T16:07:39.974Z,23.1
2023-05-10T16:12:58.699Z,23.1
2023-05-10T16:18:17.650Z,23.1
2023-05-10T16:23:36.296Z,23.1
2023-05-10T16:28:54.724Z,23.1
2023-05-10T16:34:12.901Z,23
2023-05-10T16:39:31.016Z,23
2023-05-10T16:44:33.628Z,23
2023-05-10T16:49:51.836Z,23
2023-05-10T16:55:10.169Z,23
2023-05-10T17:00:28.582Z,23
2023-05-10T17:05:46.762Z,23.1
2023-05-10T17:11:05.166Z,23
2023-05-10T17:16:23.540Z,23
2023-05-10T17:21:42.009Z,23
2023-05-10T17:27:00.729Z,23
2023-05-10T17:32:03.636Z,23
2023-05-10T17:37:22.312Z,23
2023-05-10T17:42:40.447Z,23
2023-05-10T17:47:58.699Z,23
2023-05-10T17:53:16.994Z,23.1
2023-05-10T17:58:35.639Z,23
2023-05-10T18:03:54.070Z,23
2023-05-10T18:09:12.279Z,23
2023-05-10T18:14:28.470Z,23
2023-05-10T18:19:59.193Z,23
2023-05-10T18:25:18.520Z,23
2023-05-10T18:30:37.979Z,23
2023-05-10T18:35:55.991Z,23.6
2023-05-10T18:41:14.153Z,23.1
2023-05-10T18:46:16.811Z,23
2023-05-10T18:51:36.332Z,23
2023-05-10T18:56:54.356Z,23
2023-05-10T19:02:13.759Z,23
2023-05-10T19:07:32.434Z,23
2023-05-10T19:12:51.024Z,23
2023-05-10T19:18:09.349Z,22.9
2023-05-10T19:23:29.422Z,23
2023-05-10T19:28:47.932Z,23
2023-05-10T19:34:06.473Z,22.9
2023-05-10T19:39:27.032Z,22.9
2023-05-10T19:44:45.910Z,22.9
2023-05-10T19:50:04.128Z,23
2023-05-10T19:55:22.956Z,23
2023-05-10T20:00:42.547Z,23
2023-05-10T20:06:00.939Z,23
2023-05-10T20:11:19.171Z,23.1
2023-05-10T20:16:37.865Z,23.1
2023-05-10T20:21:56.193Z,23.1
2023-05-10T20:27:14.320Z,23.1
2023-05-10T20:32:33.184Z,23.1
2023-05-10T20:37:51.815Z,23.1
2023-05-10T20:43:10.095Z,23.1
2023-05-10T20:48:28.086Z,23.1
2023-05-10T20:53:46.473Z,23.1
2023-05-10T20:59:04.672Z,23
2023-05-10T21:04:23.416Z,23.1
2023-05-10T21:09:41.861Z,23.1
2023-05-10T21:15:03.142Z,23.1
2023-05-10T21:20:21.723Z,23.1
2023-05-10T21:25:40.050Z,23
2023-05-10T21:31:01.159Z,23
2023-05-10T21:36:19.442Z,23
2023-05-10T21:41:37.567Z,23
2023-05-10T21:46:55.782Z,23
2023-05-10T21:52:14.204Z,23
2023-05-10T21:57:32.137Z,23
2023-05-10T22:02:50.347Z,23
2023-05-10T22:08:08.770Z,23
2023-05-10T22:13:27.103Z,23
2023-05-10T22:18:46.116Z,23
2023-05-10T22:24:04.590Z,23
2023-05-10T22:29:22.917Z,23
2023-05-10T22:34:41.345Z,23
2023-05-10T22:39:59.916Z,23
2023-05-10T22:45:18.115Z,23
2023-05-10T22:50:36.530Z,23
2023-05-10T22:55:57.482Z,23.1
2023-05-10T23:01:16.082Z,23.1
2023-05-10T23:06:34.545Z,23.1
2023-05-10T23:11:52.926Z,23.1
2023-05-10T23:17:11.065Z,23.1
2023-05-10T23:22:29.464Z,23.1
2023-05-10T23:27:48.253Z,23.1
2023-05-10T23:33:06.621Z,23.1
2023-05-10T23:38:25.190Z,23.1
2023-05-10T23:43:43.359Z,23.1
2023-05-10T23:49:01.548Z,23.1
2023-05-10T23:54:20.169Z,23.1
2023-05-10T23:59:38.772Z,23.1
